Time;durP1;ratioP1;P1;durP2;ratioP2;P2;SDS_P1;SDS_P2;PMS_P1;PMS_P2;Temp;Humidity;BMP_temperature;BMP_pressure;BME280_temperature;BME280_humidity;BME280_pressure;Samples;Min_cycle;Max_cycle;Signal;HPM_P1;HPM_P2
2022/11/27 00:03:03;;;;;;;23.00;13.30;;;;;;;0.10;85.46;101880.66;3337718;82;20998;-72
2022/11/27 00:07:55;;;;;;;23.18;13.05;;;;;;;0.07;85.49;101876.58;3329194;83;20955;-72
2022/11/27 00:12:46;;;;;;;30.23;16.05;;;;;;;0.05;85.68;101878.13;3333247;83;21007;-72
2022/11/27 00:17:37;;;;;;;27.52;14.55;;;;;;;0.03;85.57;101873.28;3339742;83;21449;-73
2022/11/27 00:22:28;;;;;;;28.87;16.17;;;;;;;0.04;85.61;101875.09;3275315;84;21099;-73
2022/11/27 00:27:19;;;;;;;30.10;17.20;;;;;;;0.06;85.69;101875.70;3268188;84;20960;-73
2022/11/27 00:32:11;;;;;;;25.77;14.15;;;;;;;0.07;85.74;101873.66;3316012;84;21014;-73
2022/11/27 00:37:02;;;;;;;27.13;15.70;;;;;;;0.07;85.85;101876.22;3302285;84;21491;-73
2022/11/27 00:41:54;;;;;;;26.48;15.30;;;;;;;0.09;85.82;101876.30;3270860;84;21275;-73
2022/11/27 00:46:45;;;;;;;29.05;16.00;;;;;;;0.09;85.85;101876.30;3219901;85;20998;-72
2022/11/27 00:51:37;;;;;;;27.93;15.98;;;;;;;0.09;85.93;101873.75;3266332;84;21027;-72
2022/11/27 00:56:37;;;;;;;29.98;16.77;;;;;;;0.08;85.87;101869.42;3286684;84;21442;-72
2022/11/27 01:01:36;;;;;;;28.45;15.13;;;;;;;0.08;85.99;101869.42;3314482;84;20979;-73
2022/11/27 01:06:29;;;;;;;29.05;15.03;;;;;;;0.07;86.00;101871.46;3269169;85;21877;-72
2022/11/27 01:11:24;;;;;;;26.37;13.15;;;;;;;0.06;86.14;101879.92;3261576;85;21481;-72
2022/11/27 01:16:20;;;;;;;28.25;16.37;;;;;;;0.06;86.20;101884.64;3207198;85;20978;-72
2022/11/27 01:21:13;;;;;;;29.35;16.27;;;;;;;0.08;86.42;101877.09;3222656;85;21073;-72
2022/11/27 01:26:07;;;;;;;27.48;14.23;;;;;;;0.12;86.56;101884.22;3263596;85;20998;-72
2022/11/27 01:31:06;;;;;;;25.52;14.83;;;;;;;0.11;86.29;101878.63;3290080;85;21497;-72
2022/11/27 01:36:01;;;;;;;25.68;16.12;;;;;;;0.11;86.38;101877.34;3263978;85;20987;-72
2022/11/27 01:41:03;;;;;;;31.20;16.95;;;;;;;0.12;86.23;101886.78;3244795;87;21002;-72
2022/11/27 01:45:54;;;;;;;28.95;15.25;;;;;;;0.10;86.41;101890.49;3289050;85;20987;-72
2022/11/27 01:50:45;;;;;;;29.48;14.87;;;;;;;0.08;86.37;101889.88;3284973;84;21528;-72
2022/11/27 01:55:47;;;;;;;30.37;16.62;;;;;;;0.07;86.38;101890.28;3271893;85;22471;-72
2022/11/27 02:00:40;;;;;;;34.58;17.65;;;;;;;0.05;86.50;101892.19;3319934;84;21022;-72
2022/11/27 02:05:32;;;;;;;34.40;18.48;;;;;;;0.09;86.66;101889.09;3287086;84;21005;-72
2022/11/27 02:10:47;;;;;;;32.95;18.17;;;;;;;0.10;86.63;101885.78;3302079;84;21471;-72
2022/11/27 02:16:02;;;;;;;35.08;18.85;;;;;;;0.10;86.61;101893.05;3357441;83;21110;-72
2022/11/27 02:21:20;;;;;;;33.95;17.80;;;;;;;0.12;86.76;101895.34;3385865;83;21307;-72
2022/11/27 02:26:48;;;;;;;;;;;;;;;0.15;86.92;101897.26;3328404;84;20994;-72
2022/11/27 02:32:06;;;;;;;38.88;20.80;;;;;;;0.13;86.75;101896.25;3355998;83;20577;-72
2022/11/27 02:37:11;;;;;;;37.60;20.88;;;;;;;0.14;86.91;101904.41;3342347;83;21450;-72
2022/11/27 02:42:08;;;;;;;36.40;20.20;;;;;;;0.15;86.88;101904.94;3382339;83;21070;-72
2022/11/27 02:47:00;;;;;;;37.87;20.53;;;;;;;0.13;86.90;101914.16;3307114;84;21537;-72
2022/11/27 02:51:58;;;;;;;44.30;22.62;;;;;;;0.14;87.00;101916.84;3297678;84;21037;-72
2022/11/27 02:56:51;;;;;;;42.30;21.25;;;;;;;0.16;87.10;101916.92;3315349;84;20963;-72
2022/11/27 03:01:51;;;;;;;42.25;22.58;;;;;;;0.17;87.15;101915.77;3311977;84;20978;-72
2022/11/27 03:06:50;;;;;;;41.05;22.52;;;;;;;0.19;87.21;101917.17;3319576;84;21018;-72
2022/11/27 03:11:42;;;;;;;46.85;23.20;;;;;;;0.20;87.22;101924.09;3281690;84;22193;-72
2022/11/27 03:17:06;;;;;;;43.40;22.22;;;;;;;0.20;87.06;101912.58;3296635;84;21188;-72
2022/11/27 03:22:00;;;;;;;45.98;25.23;;;;;;;0.19;87.19;101905.27;3334589;84;21034;-72
2022/11/27 03:26:51;;;;;;;49.42;25.10;;;;;;;0.22;87.30;101899.52;3283046;84;21476;-72
2022/11/27 03:31:43;;;;;;;51.98;26.73;;;;;;;0.23;87.36;101896.56;3348997;83;20951;-73
2022/11/27 03:36:34;;;;;;;45.88;24.60;;;;;;;0.24;87.42;101895.41;3343373;83;22453;-72
2022/11/27 03:41:50;;;;;;;53.02;26.17;;;;;;;0.26;87.46;101909.20;3350535;82;20974;-72
2022/11/27 03:47:22;;;;;;;53.73;28.20;;;;;;;0.26;87.52;101902.81;3327999;83;20967;-72
2022/11/27 03:52:28;;;;;;;65.65;30.37;;;;;;;0.28;87.49;101905.09;3338839;83;21449;-73
2022/11/27 03:57:36;;;;;;;52.10;28.47;;;;;;;0.30;87.67;101916.73;3399030;83;20992;-72
2022/11/27 04:02:44;;;;;;;59.40;26.87;;;;;;;0.32;87.63;101913.53;3297993;84;21336;-72
2022/11/27 04:07:35;;;;;;;52.08;29.90;;;;;;;0.34;87.69;101913.27;3328818;83;20916;-72
2022/11/27 04:12:27;;;;;;;49.90;26.95;;;;;;;0.34;87.56;101911.98;3330781;83;21502;-72
2022/11/27 04:17:18;;;;;;;53.13;27.82;;;;;;;0.38;87.73;101917.84;3313324;83;20946;-72
2022/11/27 04:22:09;;;;;;;53.40;28.45;;;;;;;0.40;87.73;101915.80;3338727;83;21545;-72
2022/11/27 04:27:00;;;;;;;59.55;30.77;;;;;;;0.38;87.61;101916.55;3268386;84;21768;-72
2022/11/27 04:31:51;;;;;;;51.48;26.97;;;;;;;0.41;87.78;101918.45;3292164;84;20935;-72
2022/11/27 04:36:42;;;;;;;64.10;32.42;;;;;;;0.46;87.81;101923.93;3356864;82;21022;-72
2022/11/27 04:41:33;;;;;;;53.98;29.98;;;;;;;0.50;87.91;101920.82;3411471;82;21442;-72
2022/11/27 04:46:24;;;;;;;51.63;28.77;;;;;;;0.52;87.82;101924.39;3411408;82;21032;-72
2022/11/27 04:51:15;;;;;;;53.55;30.23;;;;;;;0.53;87.79;101919.78;3364461;82;20983;-72
2022/11/27 04:56:07;;;;;;;59.23;28.83;;;;;;;0.54;87.79;101911.34;3403575;82;20996;-72
2022/11/27 05:00:58;;;;;;;52.90;28.52;;;;;;;0.55;87.79;101914.03;3335899;82;20899;-72
2022/11/27 05:05:56;;;;;;;52.88;28.92;;;;;;;0.54;87.74;101911.34;3408594;82;20952;-72
2022/11/27 05:11:04;;;;;;;59.83;31.45;;;;;;;0.54;87.84;101912.23;3382113;82;20943;-72
2022/11/27 05:15:56;;;;;;;57.20;29.52;;;;;;;0.56;87.84;101909.40;3437409;82;22103;-72
2022/11/27 05:20:47;;;;;;;56.63;30.48;;;;;;;0.58;87.86;101906.95;3374430;82;20983;-72
2022/11/27 05:25:38;;;;;;;56.40;29.77;;;;;;;0.58;87.84;101913.36;3384233;82;21179;-72
2022/11/27 05:30:30;;;;;;;51.45;28.45;;;;;;;0.58;87.86;101905.68;3399056;82;21400;-72
2022/11/27 05:35:21;;;;;;;55.60;27.95;;;;;;;0.61;87.91;101905.01;3393047;82;20925;-72
2022/11/27 05:40:13;;;;;;;58.60;29.95;;;;;;;0.61;87.86;101903.36;3380930;82;20972;-72
2022/11/27 05:45:06;;;;;;;61.25;30.12;;;;;;;0.63;87.98;101898.36;3412358;82;21002;-72
2022/11/27 05:49:57;;;;;;;52.10;28.55;;;;;;;0.63;87.98;101896.69;3386435;82;20972;-71
2022/11/27 05:54:48;;;;;;;51.28;28.38;;;;;;;0.64;88.00;101897.17;3396206;82;20989;-72
2022/11/27 05:59:39;;;;;;;53.98;27.67;;;;;;;0.63;87.89;101899.25;3434975;82;20947;-72
2022/11/27 06:04:33;;;;;;;53.60;30.43;;;;;;;0.65;88.04;101906.65;3384844;82;20961;-72
2022/11/27 06:09:25;;;;;;;52.27;28.07;;;;;;;0.66;87.93;101909.73;3376890;82;20918;-72
2022/11/27 06:14:16;;;;;;;53.25;30.90;;;;;;;0.68;88.05;101898.30;3399885;82;20938;-72
2022/11/27 06:19:08;;;;;;;59.83;30.30;;;;;;;0.69;88.00;101901.37;3332545;82;20973;-72
2022/11/27 06:23:59;;;;;;;58.30;29.45;;;;;;;0.69;87.98;101899.70;3356140;82;20918;-72
2022/11/27 06:28:52;;;;;;;61.98;36.05;;;;;;;0.71;88.00;101903.26;3376035;82;21037;-72
2022/11/27 06:33:45;;;;;;;53.87;29.02;;;;;;;0.72;88.02;101897.38;3348108;82;21625;-72
2022/11/27 06:38:38;;;;;;;53.98;30.30;;;;;;;0.72;88.07;101892.26;3363004;82;20934;-72
2022/11/27 06:43:29;;;;;;;61.13;31.65;;;;;;;0.72;88.05;101904.17;3344035;82;21559;-72
2022/11/27 06:48:20;;;;;;;55.52;29.50;;;;;;;0.76;88.09;101904.50;3392790;82;21015;-72
2022/11/27 06:53:11;;;;;;;55.95;29.75;;;;;;;0.78;88.11;101908.46;3375560;82;21477;-72
2022/11/27 06:58:02;;;;;;;54.23;30.57;;;;;;;0.80;88.06;101915.87;3395990;82;21059;-72
2022/11/27 07:02:54;;;;;;;60.00;29.45;;;;;;;0.84;88.12;101913.15;3400083;82;20930;-72
2022/11/27 07:07:45;;;;;;;49.65;29.48;;;;;;;0.84;88.03;101912.78;3373429;82;20983;-72
2022/11/27 07:12:37;;;;;;;51.30;28.23;;;;;;;0.86;87.90;101910.31;3401930;82;20973;-72
2022/11/27 07:17:28;;;;;;;52.25;28.20;;;;;;;0.87;87.85;101899.30;3383091;82;22106;-72
2022/11/27 07:22:19;;;;;;;57.05;28.75;;;;;;;0.90;88.01;101890.58;3343838;82;21590;-72
2022/11/27 07:27:10;;;;;;;53.45;28.75;;;;;;;0.92;87.92;101887.74;3379491;82;20898;-72
2022/11/27 07:32:01;;;;;;;55.35;27.58;;;;;;;0.94;87.90;101887.06;3384051;82;21033;-72
2022/11/27 07:36:52;;;;;;;56.65;30.02;;;;;;;0.99;87.98;101885.26;3355075;82;20918;-72
2022/11/27 07:41:43;;;;;;;61.48;30.92;;;;;;;1.01;87.98;101885.86;3390990;82;20973;-72
2022/11/27 07:46:34;;;;;;;71.47;32.97;;;;;;;1.01;87.78;101882.42;3427403;82;21070;-72
2022/11/27 07:51:26;;;;;;;69.85;32.13;;;;;;;1.02;87.84;101887.66;3393594;82;21809;-72
2022/11/27 07:56:17;;;;;;;76.55;34.78;;;;;;;1.06;87.89;101888.38;3405578;82;20993;-72
2022/11/27 08:01:13;;;;;;;64.87;28.55;;;;;;;1.12;87.95;101882.41;3378871;82;20966;-72
2022/11/27 08:06:15;;;;;;;73.00;34.10;;;;;;;1.16;87.95;101890.33;3421823;82;21507;-72
2022/11/27 08:11:20;;;;;;;96.37;39.73;;;;;;;1.21;88.06;101896.69;3410547;82;20983;-72
2022/11/27 08:16:11;;;;;;;82.00;36.68;;;;;;;1.24;87.73;101886.67;3389564;82;21549;-72
2022/11/27 08:21:03;;;;;;;79.95;35.88;;;;;;;1.29;87.80;101891.35;3353140;82;21041;-72
2022/11/27 08:25:54;;;;;;;86.35;36.93;;;;;;;1.33;87.65;101892.47;3351510;82;21049;-72
2022/11/27 08:30:45;;;;;;;81.95;36.10;;;;;;;1.37;87.85;101898.71;3373548;82;21192;-73
2022/11/27 08:35:36;;;;;;;71.85;34.63;;;;;;;1.42;87.81;101903.39;3355984;82;21046;-73
2022/11/27 08:40:27;;;;;;;70.08;35.28;;;;;;;1.45;87.61;101896.30;3333376;82;20959;-72
2022/11/27 08:45:18;;;;;;;73.05;34.70;;;;;;;1.45;87.45;101897.21;3323870;82;20986;-73
2022/11/27 08:50:10;;;;;;;75.72;34.78;;;;;;;1.50;87.58;101893.31;3337362;82;21936;-73
2022/11/27 08:55:01;;;;;;;81.42;37.55;;;;;;;1.55;87.67;101901.72;3361399;82;21483;-72
2022/11/27 08:59:52;;;;;;;81.47;36.77;;;;;;;1.61;87.76;101908.55;3406835;82;21002;-72
2022/11/27 09:04:43;;;;;;;78.97;36.63;;;;;;;1.68;87.75;101912.06;3312811;82;21057;-72
2022/11/27 09:09:36;;;;;;;71.25;34.10;;;;;;;1.72;87.52;101916.65;3337637;82;21489;-72
2022/11/27 09:14:27;;;;;;;77.82;36.35;;;;;;;1.73;87.37;101914.97;3370013;82;20955;-72
2022/11/27 09:19:20;;;;;;;74.75;36.00;;;;;;;1.72;87.40;101914.09;3349722;81;21226;-73
2022/11/27 09:24:11;;;;;;;77.03;37.55;;;;;;;1.75;87.51;101906.59;3323271;82;20982;-73
2022/11/27 09:29:03;;;;;;;81.47;38.20;;;;;;;1.82;87.64;101901.11;3414649;81;21511;-72
2022/11/27 09:33:54;;;;;;;84.55;38.75;;;;;;;1.89;87.39;101894.75;3334104;82;21009;-73
2022/11/27 09:38:45;;;;;;;77.32;38.42;;;;;;;1.95;87.24;101890.45;3366050;82;21084;-73
2022/11/27 09:43:44;;;;;;;88.37;38.50;;;;;;;2.05;87.53;101896.73;3367721;82;21245;-72
2022/11/27 09:48:44;;;;;;;81.28;37.78;;;;;;;2.08;87.36;101891.83;3354628;82;21473;-72
2022/11/27 09:53:53;;;;;;;85.15;40.15;;;;;;;2.15;87.19;101887.63;3405966;81;21001;-73
2022/11/27 09:58:59;;;;;;;81.08;36.90;;;;;;;2.19;87.20;101893.45;3357177;82;20959;-72
2022/11/27 10:03:50;;;;;;;79.20;36.68;;;;;;;2.24;87.20;101876.70;3371498;82;21479;-73
2022/11/27 10:09:13;;;;;;;82.15;39.48;;;;;;;2.31;87.07;101877.11;3371772;82;21513;-73
2022/11/27 10:14:31;;;;;;;80.28;38.25;;;;;;;2.37;86.94;101877.55;3393554;82;21512;-73
2022/11/27 10:19:50;;;;;;;;;;;;;;;2.46;86.98;101873.92;3406714;82;20968;-73
2022/11/27 10:24:55;;;;;;;70.10;35.23;;;;;;;2.53;86.94;101864.97;3399317;82;20204;-72
2022/11/27 10:29:53;;;;;;;77.47;37.30;;;;;;;2.61;86.70;101852.64;3410864;82;21023;-72
2022/11/27 10:34:52;;;;;;;77.50;39.15;;;;;;;2.67;86.56;101861.66;3389642;82;21917;-72
2022/11/27 10:39:57;;;;;;;77.40;37.90;;;;;;;2.73;86.80;101860.30;3397687;82;20862;-72
2022/11/27 10:45:03;;;;;;;69.47;35.63;;;;;;;2.77;86.52;101859.33;3422067;82;21000;-72
2022/11/27 10:49:56;;;;;;;73.25;38.05;;;;;;;2.84;86.81;101863.17;3432421;82;20969;-72
2022/11/27 10:54:56;;;;;;;74.65;38.13;;;;;;;2.82;86.46;101859.62;3366872;82;20931;-72
2022/11/27 11:00:04;;;;;;;74.77;38.42;;;;;;;2.78;86.49;101853.79;3401767;82;21443;-72
2022/11/27 11:04:55;;;;;;;76.35;38.90;;;;;;;2.77;86.60;101849.42;3433019;82;20937;-72
2022/11/27 11:09:47;;;;;;;73.90;36.13;;;;;;;2.85;86.84;101845.70;3400353;82;21529;-72
2022/11/27 11:14:38;;;;;;;67.82;35.30;;;;;;;2.88;86.61;101848.48;3368007;83;20928;-72
2022/11/27 11:19:34;;;;;;;67.42;36.53;;;;;;;2.87;86.67;101846.69;3311837;84;21018;-72
2022/11/27 11:24:29;;;;;;;75.55;40.03;;;;;;;2.90;86.86;101847.27;3319848;83;21995;-72
2022/11/27 11:29:38;;;;;;;72.95;37.28;;;;;;;2.91;86.82;101842.23;3350058;83;20917;-72
2022/11/27 11:34:31;;;;;;;75.25;38.40;;;;;;;2.95;86.90;101835.25;3316708;84;21236;-72
2022/11/27 11:39:27;;;;;;;75.97;38.83;;;;;;;2.97;86.89;101833.67;3327027;83;21051;-72
2022/11/27 11:44:26;;;;;;;74.77;38.02;;;;;;;3.00;86.89;101828.70;3343826;83;22078;-72
2022/11/27 11:49:26;;;;;;;73.83;40.28;;;;;;;3.01;87.00;101829.22;3302050;84;21124;-72
2022/11/27 11:54:50;;;;;;;72.10;36.28;;;;;;;3.02;87.09;101833.58;3335530;83;20971;-73
2022/11/27 11:59:50;;;;;;;70.20;37.05;;;;;;;3.00;87.16;101833.84;3352572;83;21323;-72
2022/11/27 12:04:53;;;;;;;73.92;37.23;;;;;;;3.00;87.18;101831.27;3353528;83;21010;-73
2022/11/27 12:10:01;;;;;;;61.20;35.35;;;;;;;2.97;87.21;101833.67;3368830;83;21058;-72
2022/11/27 12:15:32;;;;;;;64.45;37.00;;;;;;;2.97;87.38;101834.95;3376042;83;23157;-72
2022/11/27 12:20:35;;;;;;;66.82;34.38;;;;;;;2.96;87.44;101828.42;3343398;83;21013;-73
2022/11/27 12:25:49;;;;;;;62.73;37.55;;;;;;;2.94;87.37;101827.03;3321687;83;21010;-72
2022/11/27 12:30:58;;;;;;;62.73;36.85;;;;;;;2.92;87.37;101828.62;3384630;83;20986;-74
2022/11/27 12:36:20;;;;;;;66.62;34.55;;;;;;;2.92;87.53;101821.31;3382943;83;20971;-73
2022/11/27 12:41:41;;;;;;;70.97;37.40;;;;;;;2.90;87.62;101821.21;3381484;83;21832;-72
2022/11/27 12:46:47;;;;;;;66.95;38.10;;;;;;;2.85;87.60;101821.30;3380633;83;20986;-72
2022/11/27 12:51:44;;;;;;;70.83;40.33;;;;;;;2.81;87.76;101815.07;3344103;83;21062;-71
2022/11/27 12:56:47;;;;;;;72.42;36.85;;;;;;;2.77;87.78;101819.52;3383823;82;21034;-72
2022/11/27 13:01:50;;;;;;;69.82;37.85;;;;;;;2.74;87.74;101815.86;3360275;83;21392;-71
2022/11/27 13:07:28;;;;;;;70.62;39.35;;;;;;;2.70;87.87;101807.44;3357080;83;21364;-72
2022/11/27 13:12:25;;;;;;;68.90;36.13;;;;;;;2.65;87.86;101805.46;3355637;83;20991;-72
2022/11/27 13:17:17;;;;;;;64.65;38.90;;;;;;;2.61;87.83;101805.14;3361553;83;21839;-72
2022/11/27 13:22:13;;;;;;;74.58;38.98;;;;;;;2.59;88.03;101806.31;3354845;83;20998;-72
2022/11/27 13:27:22;;;;;;;67.77;37.47;;;;;;;2.59;88.05;101800.30;3385646;83;21711;-72
2022/11/27 13:32:26;;;;;;;73.52;39.08;;;;;;;2.55;87.93;101803.06;3384664;83;21082;-72
2022/11/27 13:37:34;;;;;;;69.72;41.28;;;;;;;2.54;88.15;101786.27;3362821;83;21018;-71
2022/11/27 13:42:27;;;;;;;71.12;38.85;;;;;;;2.51;88.00;101794.66;3377472;83;21066;-72
2022/11/27 13:47:22;;;;;;;73.50;40.17;;;;;;;2.47;88.03;101793.57;3359569;83;20971;-72
2022/11/27 13:52:21;;;;;;;68.83;41.63;;;;;;;2.47;88.19;101795.26;3354285;83;20990;-72
2022/11/27 13:57:17;;;;;;;74.67;41.63;;;;;;;2.45;88.28;101795.52;3347639;83;21512;-72
2022/11/27 14:02:09;;;;;;;76.87;43.45;;;;;;;2.41;88.27;101793.14;3349035;83;21051;-72
2022/11/27 14:07:05;;;;;;;78.70;44.65;;;;;;;2.32;88.14;101781.38;3365878;83;20985;-72
2022/11/27 14:11:57;;;;;;;80.97;44.42;;;;;;;2.33;88.28;101789.19;3349637;83;21006;-72
2022/11/27 14:17:03;;;;;;;68.42;39.50;;;;;;;2.31;88.23;101788.20;3350920;83;20994;-72
2022/11/27 14:21:54;;;;;;;62.80;37.45;;;;;;;2.27;88.24;101791.33;3363885;83;21181;-72
2022/11/27 14:26:45;;;;;;;82.25;45.55;;;;;;;2.20;88.16;101790.05;3305202;83;21475;-72
2022/11/27 14:31:37;;;;;;;74.60;42.53;;;;;;;2.17;88.29;101790.23;3324748;83;21583;-71
2022/11/27 14:36:33;;;;;;;76.57;44.35;;;;;;;2.15;88.29;101788.84;3305662;83;20926;-72
2022/11/27 14:41:27;;;;;;;78.57;44.37;;;;;;;2.11;88.36;101788.14;3331262;83;21019;-72
2022/11/27 14:46:21;;;;;;;76.00;46.20;;;;;;;2.07;88.37;101783.56;3310922;83;22226;-71
2022/11/27 14:51:18;;;;;;;75.25;45.75;;;;;;;1.99;88.28;101784.33;3364416;83;21018;-72
2022/11/27 14:56:10;;;;;;;84.13;49.45;;;;;;;1.95;88.26;101782.72;3353310;83;20971;-72
2022/11/27 15:01:06;;;;;;;80.80;45.78;;;;;;;1.89;88.20;101790.88;3345637;83;22194;-71
2022/11/27 15:06:05;;;;;;;74.42;45.52;;;;;;;1.82;88.21;101779.30;3361132;83;21018;-73
2022/11/27 15:10:59;;;;;;;76.77;42.75;;;;;;;1.75;88.09;101773.25;3365774;83;21989;-72
2022/11/27 15:16:07;;;;;;;71.67;39.75;;;;;;;1.64;88.08;101764.81;3361494;83;20990;-73
2022/11/27 15:20:59;;;;;;;75.97;43.08;;;;;;;1.54;87.86;101764.98;3336055;83;21042;-72
2022/11/27 15:26:04;;;;;;;72.20;41.88;;;;;;;1.43;87.83;101777.03;3338463;83;21002;-72
2022/11/27 15:30:56;;;;;;;69.65;40.55;;;;;;;1.33;87.75;101773.31;3365654;83;20943;-72
2022/11/27 15:35:48;;;;;;;68.60;41.15;;;;;;;1.22;87.71;101780.64;3364817;83;22048;-72
2022/11/27 15:40:40;;;;;;;65.75;41.37;;;;;;;1.12;87.77;101779.06;3325479;83;20942;-72
2022/11/27 15:45:32;;;;;;;79.37;44.90;;;;;;;1.01;87.60;101769.73;3369815;83;21005;-73
2022/11/27 15:50:23;;;;;;;76.17;43.55;;;;;;;0.91;87.54;101774.55;3336008;84;20984;-73
2022/11/27 15:55:17;;;;;;;82.78;47.17;;;;;;;0.81;87.37;101774.69;3355665;84;20975;-72
2022/11/27 16:00:10;;;;;;;75.22;47.30;;;;;;;0.71;87.53;101776.55;3318491;83;21002;-73
2022/11/27 16:05:05;;;;;;;83.37;46.58;;;;;;;0.63;87.44;101778.95;3360875;83;21082;-72
2022/11/27 16:09:57;;;;;;;80.62;44.48;;;;;;;0.54;87.18;101778.27;3327887;83;20973;-73
2022/11/27 16:14:48;;;;;;;77.58;47.25;;;;;;;0.48;87.37;101777.80;3318957;83;21054;-73
2022/11/27 16:19:39;;;;;;;76.85;43.05;;;;;;;0.46;87.69;101773.84;3325844;83;20940;-72
2022/11/27 16:24:30;;;;;;;73.25;42.80;;;;;;;0.46;87.58;101773.84;3339294;83;22039;-72
2022/11/27 16:29:22;;;;;;;78.17;44.25;;;;;;;0.44;87.57;101766.84;3244968;84;21301;-73
2022/11/27 16:34:16;;;;;;;70.17;42.33;;;;;;;0.42;87.46;101759.44;3315916;83;21567;-72
2022/11/27 16:39:10;;;;;;;74.90;44.05;;;;;;;0.43;87.50;101765.04;3315879;85;20939;-72
2022/11/27 16:44:13;;;;;;;72.27;41.10;;;;;;;0.46;87.72;101756.32;3286120;83;20998;-72
2022/11/27 16:49:05;;;;;;;65.52;40.73;;;;;;;0.46;87.81;101748.64;3325465;83;21155;-72
2022/11/27 16:53:59;;;;;;;83.12;44.85;;;;;;;0.43;87.63;101748.41;3324547;84;21197;-73
2022/11/27 16:58:51;;;;;;;99.87;56.40;;;;;;;0.41;87.50;101742.30;3360278;83;21003;-73
2022/11/27 17:03:44;;;;;;;77.70;44.98;;;;;;;0.41;87.51;101746.13;3359252;84;20944;-72
2022/11/27 17:08:36;;;;;;;79.75;44.93;;;;;;;0.43;87.61;101744.57;3324597;84;20979;-72
2022/11/27 17:13:27;;;;;;;71.42;42.00;;;;;;;0.49;87.91;101742.48;3327058;83;22802;-72
2022/11/27 17:18:18;;;;;;;88.60;51.65;;;;;;;0.50;87.76;101748.09;3348635;83;21463;-72
2022/11/27 17:23:10;;;;;;;87.40;48.40;;;;;;;0.48;87.52;101744.53;3377844;83;20985;-72
2022/11/27 17:28:02;;;;;;;75.03;43.75;;;;;;;0.50;87.81;101750.64;3392441;83;20975;-72
2022/11/27 17:32:55;;;;;;;77.08;43.80;;;;;;;0.52;87.92;101736.29;3353067;82;21024;-72
2022/11/27 17:37:46;;;;;;;76.28;42.98;;;;;;;0.54;88.04;101734.36;3364557;82;21193;-72
2022/11/27 17:42:37;;;;;;;85.03;47.50;;;;;;;0.56;88.02;101733.20;3351011;83;20975;-72
2022/11/27 17:47:29;;;;;;;75.80;45.05;;;;;;;0.58;88.31;101725.24;3320829;83;21054;-73
2022/11/27 17:52:20;;;;;;;77.58;44.45;;;;;;;0.61;88.32;101724.20;3361686;82;21270;-73
2022/11/27 17:57:12;;;;;;;88.22;48.17;;;;;;;0.65;88.21;101727.47;3383837;83;21546;-73
2022/11/27 18:02:03;;;;;;;83.97;46.00;;;;;;;0.63;88.12;101717.52;3396322;82;21135;-72
2022/11/27 18:06:54;;;;;;;82.20;48.75;;;;;;;0.63;88.13;101717.52;3426113;82;20934;-73
2022/11/27 18:11:47;;;;;;;75.08;44.85;;;;;;;0.63;88.14;101725.20;3365078;82;21057;-72
2022/11/27 18:16:40;;;;;;;84.10;48.33;;;;;;;0.66;88.31;101717.75;3368029;82;22011;-72
2022/11/27 18:21:31;;;;;;;89.00;52.27;;;;;;;0.67;88.36;101716.95;3325410;82;21243;-72
2022/11/27 18:26:24;;;;;;;99.28;57.23;;;;;;;0.69;88.48;101708.98;3324030;82;22045;-72
2022/11/27 18:31:17;;;;;;;93.58;55.20;;;;;;;0.73;88.47;101712.66;3326848;81;21009;-73
2022/11/27 18:36:10;;;;;;;100.50;56.48;;;;;;;0.75;88.53;101707.26;3347521;81;21009;-73
2022/11/27 18:41:09;;;;;;;99.95;56.15;;;;;;;0.78;88.61;101701.09;3371918;82;21481;-72
2022/11/27 18:46:03;;;;;;;92.47;53.52;;;;;;;0.81;88.65;101701.72;3368646;82;20954;-72
2022/11/27 18:51:08;;;;;;;91.05;52.78;;;;;;;0.84;88.62;101707.03;3343034;82;49681;-73
2022/11/27 18:56:07;;;;;;;89.40;53.15;;;;;;;0.85;88.68;101703.71;3391508;82;21025;-72
2022/11/27 19:00:58;;;;;;;92.75;53.42;;;;;;;0.87;88.71;101709.83;3379962;81;21499;-72
2022/11/27 19:05:49;;;;;;;84.65;51.85;;;;;;;0.90;88.73;101712.62;3342119;82;20958;-72
2022/11/27 19:10:40;;;;;;;93.97;53.10;;;;;;;0.93;88.72;101709.88;3325976;83;21589;-72
2022/11/27 19:15:32;;;;;;;95.75;53.78;;;;;;;0.95;88.71;101708.72;3345712;84;21371;-71
2022/11/27 19:20:23;;;;;;;86.82;50.28;;;;;;;0.97;88.78;101708.80;3334055;83;22152;-72
2022/11/27 19:25:15;;;;;;;103.12;54.85;;;;;;;0.99;88.78;101706.87;3372734;83;21057;-72
2022/11/27 19:30:08;;;;;;;92.67;50.92;;;;;;;1.00;88.81;101698.78;3350617;83;21115;-71
2022/11/27 19:34:59;;;;;;;90.28;49.90;;;;;;;1.02;88.75;101707.09;3366223;83;21480;-73
2022/11/27 19:39:52;;;;;;;86.82;50.40;;;;;;;1.03;88.74;101692.20;3380757;83;21323;-70
2022/11/27 19:44:43;;;;;;;89.83;49.70;;;;;;;1.03;88.74;101681.97;3308112;83;20960;-71
2022/11/27 19:49:34;;;;;;;90.05;48.48;;;;;;;1.04;88.74;101697.84;3368946;83;20958;-71
2022/11/27 19:54:28;;;;;;;84.28;46.77;;;;;;;1.07;88.91;101695.51;3371919;83;20975;-71
2022/11/27 19:59:20;;;;;;;84.50;46.23;;;;;;;1.10;88.98;101686.73;3349065;83;20974;-72
2022/11/27 20:04:14;;;;;;;84.92;49.00;;;;;;;1.13;88.92;101689.92;3353629;83;21109;-70
2022/11/27 20:09:05;;;;;;;81.50;45.25;;;;;;;1.11;88.91;101685.97;3365746;83;21038;-71
2022/11/27 20:13:58;;;;;;;79.95;45.38;;;;;;;1.13;88.96;101676.72;3335180;82;21073;-71
2022/11/27 20:18:49;;;;;;;79.32;46.58;;;;;;;1.12;88.85;101677.48;3367097;82;22175;-71
2022/11/27 20:23:41;;;;;;;83.67;44.48;;;;;;;1.09;88.71;101674.73;3371559;82;21151;-72
2022/11/27 20:28:33;;;;;;;69.12;39.35;;;;;;;1.05;88.80;101676.55;3350502;82;21271;-72
2022/11/27 20:33:26;;;;;;;86.37;49.08;;;;;;;1.05;88.82;101677.83;3377015;82;20973;-71
2022/11/27 20:38:21;;;;;;;90.30;46.30;;;;;;;1.03;88.88;101678.52;3372006;82;20927;-71
2022/11/27 20:43:12;;;;;;;82.70;46.13;;;;;;;1.05;89.02;101676.95;3350371;81;20997;-71
2022/11/27 20:48:05;;;;;;;84.87;46.37;;;;;;;1.08;89.11;101678.06;3315787;82;21464;-70
2022/11/27 20:52:56;;;;;;;83.85;45.10;;;;;;;1.12;89.09;101674.92;3330580;81;21149;-72
2022/11/27 20:57:47;;;;;;;81.28;46.58;;;;;;;1.12;89.01;101678.77;3371597;81;21097;-71
2022/11/27 21:02:39;;;;;;;78.55;45.33;;;;;;;1.09;89.00;101679.85;3366133;82;21038;-71
2022/11/27 21:07:37;;;;;;;75.40;44.67;;;;;;;1.11;89.13;101679.56;3335159;82;21722;-71
2022/11/27 21:12:33;;;;;;;86.35;45.43;;;;;;;1.12;89.15;101674.92;3357037;83;21075;-73
2022/11/27 21:17:26;;;;;;;79.80;42.88;;;;;;;1.13;89.20;101669.03;3255002;86;21155;-74
2022/11/27 21:22:18;;;;;;;76.20;42.15;;;;;;;1.14;89.20;101672.11;3257880;86;21017;-74
2022/11/27 21:27:11;;;;;;;75.00;41.53;;;;;;;1.14;89.19;101670.83;3246202;85;20952;-74
2022/11/27 21:32:02;;;;;;;79.53;41.45;;;;;;;1.13;89.14;101663.03;3292073;85;21070;-74
2022/11/27 21:36:54;;;;;;;83.22;43.20;;;;;;;1.12;89.24;101665.95;3226768;86;20980;-72
2022/11/27 21:41:52;;;;;;;81.02;46.08;;;;;;;1.13;89.36;101665.59;3190036;86;21647;-74
2022/11/27 21:46:45;;;;;;;80.87;43.92;;;;;;;1.18;89.50;101660.77;3313858;85;21531;-74
2022/11/27 21:51:38;;;;;;;75.72;41.20;;;;;;;1.19;89.42;101665.13;3232856;86;20983;-74
2022/11/27 21:56:32;;;;;;;71.62;39.18;;;;;;;1.21;89.50;101655.87;3230351;86;21006;-74
2022/11/27 22:01:25;;;;;;;66.25;39.45;;;;;;;1.22;89.35;101658.95;3224297;86;21012;-74
2022/11/27 22:06:18;;;;;;;61.83;39.08;;;;;;;1.22;89.54;101658.95;3199609;86;21647;-73
2022/11/27 22:11:12;;;;;;;79.35;42.30;;;;;;;1.22;89.24;101666.63;3213450;84;21525;-74
2022/11/27 22:16:14;;;;;;;77.25;41.40;;;;;;;1.22;89.40;101662.78;3373015;82;20962;-74
2022/11/27 22:21:08;;;;;;;77.92;43.95;;;;;;;1.24;89.51;101658.66;3359466;82;20998;-73
2022/11/27 22:26:09;;;;;;;79.32;43.45;;;;;;;1.25;89.34;101660.05;3398352;82;20978;-73
2022/11/27 22:31:00;;;;;;;84.10;45.48;;;;;;;1.26;89.43;101654.52;3346585;82;21793;-73
2022/11/27 22:35:52;;;;;;;72.72;41.77;;;;;;;1.27;89.44;101650.79;3347065;82;20994;-74
2022/11/27 22:40:44;;;;;;;77.72;41.02;;;;;;;1.29;89.51;101641.93;3369659;82;21045;-74